Trident — ZCYT9 — position and weather

sailwx.info

Track history (hours):
 
Tides and Currents Weather Stations Pressure Air Temp Water Temp Dewpoint Dewpoint Depression Visibility Wind Speed Wind Dir Waves Ship Positions

Trident

Last reported at 2017-Jun-16 08:50 UTC. Time now 2017-Jun-22 18:35 UTC.
Position N 41°23' E 002°11'.

Length 66 m; draft 3.4 m.

Type: Pleasure craft. MMSI: 319764000.

Date/timePositionNaut miles runAvg speedWind from/ knotsBaromVisibWave heightAir tempDewpointWater temp
2017-Jun-16 08:50N 41°23' E 002°11'0 0.7
2017-Jun-16 08:30N 41°22' E 002°11'1 2.5
2017-Jun-16 08:00N 41°22' E 002°12'1 2.9
2017-Jun-16 07:29N 41°22' E 002°14'0 0.7
2017-Jun-16 07:00N 41°22' E 002°14'0 0.8
2017-Jun-16 06:30N 41°22' E 002°14'1 0.5
2017-Jun-16 05:25N 41°21' E 002°15'1 1.6
2017-Jun-16 05:00N 41°21' E 002°14'3 5.3
2017-Jun-16 04:30N 41°18' E 002°13'713.9
2017-Jun-16 04:00N 41°12' E 002°08'1013.7
2017-Jun-16 03:17N 41°04' E 002°01'413.7
2017-Jun-16 03:00N 41°01' E 001°58'713.8
2017-Jun-16 02:29N 40°55' E 001°53'613.7
2017-Jun-16 02:00N 40°49' E 001°48'713.7
2017-Jun-16 01:30N 40°44' E 001°43'713.8
2017-Jun-16 01:00N 40°38' E 001°38'713.8
2017-Jun-16 00:30N 40°32' E 001°33'713.9
2017-Jun-16 00:00N 40°26' E 001°28'714.0
2017-Jun-15 23:30N 40°20' E 001°23'714.0
2017-Jun-15 23:00N 40°14' E 001°18'714.1
2017-Jun-15 22:30N 40°09' E 001°13'714.0
2017-Jun-15 22:00N 40°02' E 001°08'713.9
2017-Jun-15 21:30N 39°57' E 001°03'714.0
2017-Jun-15 21:00N 39°51' E 000°58'714.0
2017-Jun-15 20:30N 39°45' E 000°53'6513.9
2017-Jun-15 15:49N 38°51' E 000°07'0 0.7
2017-Jun-15 15:23N 38°50' E 000°07'0 0.0
2017-Jun-15 12:20N 38°50' E 000°07'0 0.0
2017-Jun-14 19:13N 38°50' E 000°07'  
2017-Jun-07 00:15N 38°50' E 000°07'0 0.0
2017-Jun-07 00:00N 38°50' E 000°07'0 0.0
2017-Jun-06 21:35N 38°50' E 000°07'0 0.0
2017-Jun-06 21:30N 38°50' E 000°07'0 0.0
2017-Jun-06 20:58N 38°50' E 000°07'  
Track history (hours):
 
Tides and Currents Weather Stations Pressure Air Temp Water Temp Dewpoint Dewpoint Depression Visibility Wind Speed Wind Dir Waves Ship Positions

Trident

Last reported at 2017-Jun-16 08:50 UTC. Time now 2017-Jun-22 18:35 UTC.
Position N 41°23' E 002°11'.

Length 66 m; draft 3.4 m.

Type: Pleasure craft. MMSI: 319764000.

Date/timePositionNaut miles runAvg speedWind from/ knotsBaromVisibWave heightAir tempDewpointWater temp
2017-Jun-16 08:50N 41°23' E 002°11'0 0.7
2017-Jun-16 08:30N 41°22' E 002°11'1 2.5
2017-Jun-16 08:00N 41°22' E 002°12'1 2.9
2017-Jun-16 07:29N 41°22' E 002°14'0 0.7
2017-Jun-16 07:00N 41°22' E 002°14'0 0.8
2017-Jun-16 06:30N 41°22' E 002°14'1 0.5
2017-Jun-16 05:25N 41°21' E 002°15'1 1.6
2017-Jun-16 05:00N 41°21' E 002°14'3 5.3
2017-Jun-16 04:30N 41°18' E 002°13'713.9
2017-Jun-16 04:00N 41°12' E 002°08'1013.7
2017-Jun-16 03:17N 41°04' E 002°01'413.7
2017-Jun-16 03:00N 41°01' E 001°58'713.8
2017-Jun-16 02:29N 40°55' E 001°53'613.7
2017-Jun-16 02:00N 40°49' E 001°48'713.7
2017-Jun-16 01:30N 40°44' E 001°43'713.8
2017-Jun-16 01:00N 40°38' E 001°38'713.8
2017-Jun-16 00:30N 40°32' E 001°33'713.9
2017-Jun-16 00:00N 40°26' E 001°28'714.0
2017-Jun-15 23:30N 40°20' E 001°23'714.0
2017-Jun-15 23:00N 40°14' E 001°18'714.1
2017-Jun-15 22:30N 40°09' E 001°13'714.0
2017-Jun-15 22:00N 40°02' E 001°08'713.9
2017-Jun-15 21:30N 39°57' E 001°03'714.0
2017-Jun-15 21:00N 39°51' E 000°58'714.0
2017-Jun-15 20:30N 39°45' E 000°53'6513.9
2017-Jun-15 15:49N 38°51' E 000°07'0 0.7
2017-Jun-15 15:23N 38°50' E 000°07'0 0.0
2017-Jun-15 12:20N 38°50' E 000°07'0 0.0
2017-Jun-14 19:13N 38°50' E 000°07'  
2017-Jun-07 00:15N 38°50' E 000°07'0 0.0
2017-Jun-07 00:00N 38°50' E 000°07'0 0.0
2017-Jun-06 21:35N 38°50' E 000°07'0 0.0
2017-Jun-06 21:30N 38°50' E 000°07'0 0.0
2017-Jun-06 20:58N 38°50' E 000°07'  

Dump ship's entire track history